sensor_id;sensor_type;location;lat;lon;timestamp;pressure;altitude;pressure_sealevel;temperature
77331;BMP280;66405;48.328;7.820;2023-04-03T00:00:25;100570.91;;;8.12
77331;BMP280;66405;48.328;7.820;2023-04-03T00:02:51;100572.84;;;8.12
77331;BMP280;66405;48.328;7.820;2023-04-03T00:05:16;100576.69;;;8.11
77331;BMP280;66405;48.328;7.820;2023-04-03T00:07:43;100568.63;;;8.11
77331;BMP280;66405;48.328;7.820;2023-04-03T00:10:08;100571.31;;;8.11
77331;BMP280;66405;48.328;7.820;2023-04-03T00:12:34;100575.53;;;8.12
77331;BMP280;66405;48.328;7.820;2023-04-03T00:15:00;100580.16;;;8.11
77331;BMP280;66405;48.328;7.820;2023-04-03T00:17:25;100582.09;;;8.11
77331;BMP280;66405;48.328;7.820;2023-04-03T00:19:51;100580.16;;;8.11
77331;BMP280;66405;48.328;7.820;2023-04-03T00:22:16;100584.41;;;8.09
77331;BMP280;66405;48.328;7.820;2023-04-03T00:24:42;100589.03;;;8.08
77331;BMP280;66405;48.328;7.820;2023-04-03T00:27:07;100588.28;;;8.08
77331;BMP280;66405;48.328;7.820;2023-04-03T00:29:33;100589.03;;;8.08
77331;BMP280;66405;48.328;7.820;2023-04-03T00:31:59;100593.28;;;8.06
77331;BMP280;66405;48.328;7.820;2023-04-03T00:34:24;100589.91;;;8.01
77331;BMP280;66405;48.328;7.820;2023-04-03T00:36:50;100590.31;;;8.00
77331;BMP280;66405;48.328;7.820;2023-04-03T00:39:16;100599.53;;;7.99
77331;BMP280;66405;48.328;7.820;2023-04-03T00:41:42;100591.13;;;7.97
77331;BMP280;66405;48.328;7.820;2023-04-03T00:47:13;100592.00;;;7.90
77331;BMP280;66405;48.328;7.820;2023-04-03T00:49:41;100594.31;;;7.88
77331;BMP280;66405;48.328;7.820;2023-04-03T00:52:11;100589.34;;;7.87
77331;BMP280;66405;48.328;7.820;2023-04-03T00:54:38;100591.25;;;7.86
77331;BMP280;66405;48.328;7.820;2023-04-03T00:57:06;100588.97;;;7.84
77331;BMP280;66405;48.328;7.820;2023-04-03T00:59:34;100590.91;;;7.84
77331;BMP280;66405;48.328;7.820;2023-04-03T01:02:00;100592.09;;;7.83
77331;BMP280;66405;48.328;7.820;2023-04-03T01:06:56;100595.94;;;7.82
77331;BMP280;66405;48.328;7.820;2023-04-03T01:09:23;100590.25;;;7.76
77331;BMP280;66405;48.328;7.820;2023-04-03T01:11:48;100592.25;;;7.68
77331;BMP280;66405;48.328;7.820;2023-04-03T01:14:14;100585.44;;;7.60
77331;BMP280;66405;48.328;7.820;2023-04-03T01:16:40;100584.75;;;7.56
77331;BMP280;66405;48.328;7.820;2023-04-03T01:19:09;100582.06;;;7.56
77331;BMP280;66405;48.328;7.820;2023-04-03T01:21:52;100582.88;;;7.53
77331;BMP280;66405;48.328;7.820;2023-04-03T01:24:29;100579.41;;;7.52
77331;BMP280;66405;48.328;7.820;2023-04-03T01:26:57;100580.19;;;7.53
77331;BMP280;66405;48.328;7.820;2023-04-03T01:29:23;100582.88;;;7.53
77331;BMP280;66405;48.328;7.820;2023-04-03T01:31:54;100577.91;;;7.48
77331;BMP280;66405;48.328;7.820;2023-04-03T01:34:21;100573.31;;;7.45
77331;BMP280;66405;48.328;7.820;2023-04-03T01:36:47;100577.53;;;7.49
77331;BMP280;66405;48.328;7.820;2023-04-03T01:39:13;100576.75;;;7.49
77331;BMP280;66405;48.328;7.820;2023-04-03T01:41:38;100581.34;;;7.52
77331;BMP280;66405;48.328;7.820;2023-04-03T01:44:11;100580.19;;;7.53
77331;BMP280;66405;48.328;7.820;2023-04-03T01:46:37;100584.03;;;7.52
77331;BMP280;66405;48.328;7.820;2023-04-03T01:49:03;100582.09;;;7.52
77331;BMP280;66405;48.328;7.820;2023-04-03T01:51:29;100577.50;;;7.53
77331;BMP280;66405;48.328;7.820;2023-04-03T01:53:55;100580.19;;;7.53
77331;BMP280;66405;48.328;7.820;2023-04-03T01:56:20;100575.19;;;7.51
77331;BMP280;66405;48.328;7.820;2023-04-03T01:58:46;100574.44;;;7.51
77331;BMP280;66405;48.328;7.820;2023-04-03T02:01:13;100582.91;;;7.49
77331;BMP280;66405;48.328;7.820;2023-04-03T02:03:38;100574.53;;;7.44
77331;BMP280;66405;48.328;7.820;2023-04-03T02:06:04;100576.38;;;7.47
77331;BMP280;66405;48.328;7.820;2023-04-03T02:08:29;100570.63;;;7.45
77331;BMP280;66405;48.328;7.820;2023-04-03T02:10:55;100569.16;;;7.44
77331;BMP280;66405;48.328;7.820;2023-04-03T02:13:20;100568.78;;;7.42
77331;BMP280;66405;48.328;7.820;2023-04-03T02:15:46;100573.00;;;7.43
77331;BMP280;66405;48.328;7.820;2023-04-03T02:18:15;100570.69;;;7.41
77331;BMP280;66405;48.328;7.820;2023-04-03T02:20:41;100572.25;;;7.39
77331;BMP280;66405;48.328;7.820;2023-04-03T02:23:07;100570.38;;;7.35
77331;BMP280;66405;48.328;7.820;2023-04-03T02:25:33;100565.75;;;7.36
77331;BMP280;66405;48.328;7.820;2023-04-03T02:27:58;100571.56;;;7.34
77331;BMP280;66405;48.328;7.820;2023-04-03T02:30:24;100573.47;;;7.34
77331;BMP280;66405;48.328;7.820;2023-04-03T02:32:50;100572.31;;;7.35
77331;BMP280;66405;48.328;7.820;2023-04-03T02:35:16;100580.78;;;7.33
77331;BMP280;66405;48.328;7.820;2023-04-03T02:37:41;100571.56;;;7.34
77331;BMP280;66405;48.328;7.820;2023-04-03T02:40:08;100573.84;;;7.36
77331;BMP280;66405;48.328;7.820;2023-04-03T02:42:34;100565.41;;;7.34
77331;BMP280;66405;48.328;7.820;2023-04-03T02:45:02;100559.28;;;7.33
77331;BMP280;66405;48.328;7.820;2023-04-03T02:47:28;100567.69;;;7.35
77331;BMP280;66405;48.328;7.820;2023-04-03T02:49:54;100568.47;;;7.36
77331;BMP280;66405;48.328;7.820;2023-04-03T02:52:20;100564.59;;;7.37
77331;BMP280;66405;48.328;7.820;2023-04-03T02:54:47;100564.59;;;7.37
77331;BMP280;66405;48.328;7.820;2023-04-03T02:57:12;100571.91;;;7.36
77331;BMP280;66405;48.328;7.820;2023-04-03T02:59:38;100569.63;;;7.35
77331;BMP280;66405;48.328;7.820;2023-04-03T03:02:08;100568.91;;;7.31
77331;BMP280;66405;48.328;7.820;2023-04-03T03:04:34;100569.25;;;7.33
77331;BMP280;66405;48.328;7.820;2023-04-03T03:07:00;100566.22;;;7.31
77331;BMP280;66405;48.328;7.820;2023-04-03T03:09:25;100569.69;;;7.31
77331;BMP280;66405;48.328;7.820;2023-04-03T03:11:52;100573.47;;;7.34
77331;BMP280;66405;48.328;7.820;2023-04-03T03:14:17;100567.41;;;7.30
77331;BMP280;66405;48.328;7.820;2023-04-03T03:16:43;100568.53;;;7.32
77331;BMP280;66405;48.328;7.820;2023-04-03T03:19:08;100568.53;;;7.32
77331;BMP280;66405;48.328;7.820;2023-04-03T03:21:34;100567.75;;;7.32
77331;BMP280;66405;48.328;7.820;2023-04-03T03:24:00;100576.22;;;7.30
77331;BMP280;66405;48.328;7.820;2023-04-03T03:26:26;100566.22;;;7.31
77331;BMP280;66405;48.328;7.820;2023-04-03T03:28:51;100565.47;;;7.30
77331;BMP280;66405;48.328;7.820;2023-04-03T03:31:17;100564.72;;;7.30
77331;BMP280;66405;48.328;7.820;2023-04-03T03:33:43;100564.72;;;7.30
77331;BMP280;66405;48.328;7.820;2023-04-03T03:36:08;100567.75;;;7.32
77331;BMP280;66405;48.328;7.820;2023-04-03T03:38:35;100565.41;;;7.34
77331;BMP280;66405;48.328;7.820;2023-04-03T03:41:01;100570.78;;;7.34
77331;BMP280;66405;48.328;7.820;2023-04-03T03:43:32;100564.97;;;7.35
77331;BMP280;66405;48.328;7.820;2023-04-03T03:45:57;100574.94;;;7.39
77331;BMP280;66405;48.328;7.820;2023-04-03T03:48:24;100558.44;;;7.36
77331;BMP280;66405;48.328;7.820;2023-04-03T03:50:50;100560.72;;;7.42
77331;BMP280;66405;48.328;7.820;2023-04-03T03:53:22;100566.09;;;7.42
77331;BMP280;66405;48.328;7.820;2023-04-03T03:55:51;100568.41;;;7.40
77331;BMP280;66405;48.328;7.820;2023-04-03T03:58:19;100564.59;;;7.37
77331;BMP280;66405;48.328;7.820;2023-04-03T04:00:44;100569.22;;;7.36
77331;BMP280;66405;48.328;7.820;2023-04-03T04:03:10;100566.94;;;7.35
77331;BMP280;66405;48.328;7.820;2023-04-03T04:05:36;100568.47;;;7.36
77331;BMP280;66405;48.328;7.820;2023-04-03T04:08:02;100571.91;;;7.36
77331;BMP280;66405;48.328;7.820;2023-04-03T04:10:27;100558.44;;;7.36
77331;BMP280;66405;48.328;7.820;2023-04-03T04:12:53;100565.41;;;7.34
77331;BMP280;66405;48.328;7.820;2023-04-03T04:15:22;100556.56;;;7.33
77331;BMP280;66405;48.328;7.820;2023-04-03T04:17:52;100570.09;;;7.30
77331;BMP280;66405;48.328;7.820;2023-04-03T04:20:18;100569.72;;;7.28
77331;BMP280;66405;48.328;7.820;2023-04-03T04:22:46;100574.31;;;7.27
77331;BMP280;66405;48.328;7.820;2023-04-03T04:25:11;100568.59;;;7.25
77331;BMP280;66405;48.328;7.820;2023-04-03T04:27:38;100581.22;;;7.28
77331;BMP280;66405;48.328;7.820;2023-04-03T04:30:04;100573.22;;;7.21
77331;BMP280;66405;48.328;7.820;2023-04-03T04:32:31;100572.13;;;7.18
77331;BMP280;66405;48.328;7.820;2023-04-03T04:34:56;100570.19;;;7.19
77331;BMP280;66405;48.328;7.820;2023-04-03T04:37:22;100573.69;;;7.16
77331;BMP280;66405;48.328;7.820;2023-04-03T04:39:49;100578.69;;;7.14
77331;BMP280;66405;48.328;7.820;2023-04-03T04:42:15;100585.63;;;7.11
77331;BMP280;66405;48.328;7.820;2023-04-03T04:44:40;100585.28;;;7.09
77331;BMP280;66405;48.328;7.820;2023-04-03T04:47:07;100574.16;;;7.07
77331;BMP280;66405;48.328;7.820;2023-04-03T04:49:32;100579.13;;;7.09
77331;BMP280;66405;48.328;7.820;2023-04-03T04:51:58;100581.06;;;7.08
77331;BMP280;66405;48.328;7.820;2023-04-03T04:54:28;100587.63;;;7.07
77331;BMP280;66405;48.328;7.820;2023-04-03T04:56:54;100588.78;;;7.06
77331;BMP280;66405;48.328;7.820;2023-04-03T04:59:20;100586.88;;;7.03
77331;BMP280;66405;48.328;7.820;2023-04-03T05:01:46;100583.44;;;7.02
77331;BMP280;66405;48.328;7.820;2023-04-03T05:04:15;100586.53;;;7.01
77331;BMP280;66405;48.328;7.820;2023-04-03T05:06:41;100593.44;;;6.98
77331;BMP280;66405;48.328;7.820;2023-04-03T05:09:12;100589.63;;;6.96
77331;BMP280;66405;48.328;7.820;2023-04-03T05:11:41;100586.22;;;6.95
77331;BMP280;66405;48.328;7.820;2023-04-03T05:14:09;100588.91;;;6.92
77331;BMP280;66405;48.328;7.820;2023-04-03T05:16:35;100592.00;;;6.90
77331;BMP280;66405;48.328;7.820;2023-04-03T05:19:05;100594.28;;;6.92
77331;BMP280;66405;48.328;7.820;2023-04-03T05:21:31;100591.94;;;6.94
77331;BMP280;66405;48.328;7.820;2023-04-03T05:23:59;100591.19;;;6.93
77331;BMP280;66405;48.328;7.820;2023-04-03T05:26:32;100596.53;;;6.97
77331;BMP280;66405;48.328;7.820;2023-04-03T05:28:58;100605.34;;;6.97
77331;BMP280;66405;48.328;7.820;2023-04-03T05:31:24;100602.66;;;7.01
77331;BMP280;66405;48.328;7.820;2023-04-03T05:33:50;100596.88;;;7.02
77331;BMP280;66405;48.328;7.820;2023-04-03T05:36:17;100608.34;;;7.07
77331;BMP280;66405;48.328;7.820;2023-04-03T05:38:46;100603.28;;;7.12
77331;BMP280;66405;48.328;7.820;2023-04-03T05:41:12;100607.88;;;7.15
77331;BMP280;66405;48.328;7.820;2023-04-03T05:43:38;100609.78;;;7.18
77331;BMP280;66405;48.328;7.820;2023-04-03T05:46:13;100607.47;;;7.21
77331;BMP280;66405;48.328;7.820;2023-04-03T05:48:42;100610.09;;;7.24
77331;BMP280;66405;48.328;7.820;2023-04-03T05:51:15;100618.50;;;7.30
77331;BMP280;66405;48.328;7.820;2023-04-03T05:53:42;100607.25;;;7.35
77331;BMP280;66405;48.328;7.820;2023-04-03T05:56:08;100612.88;;;7.48
77331;BMP280;66405;48.328;7.820;2023-04-03T05:58:40;100615.19;;;7.49
77331;BMP280;66405;48.328;7.820;2023-04-03T06:01:06;100624.28;;;7.59
77331;BMP280;66405;48.328;7.820;2023-04-03T06:03:33;100619.25;;;7.61
77331;BMP280;66405;48.328;7.820;2023-04-03T06:05:58;100623.03;;;7.67
77331;BMP280;66405;48.328;7.820;2023-04-03T06:08:24;100627.97;;;7.73
77331;BMP280;66405;48.328;7.820;2023-04-03T06:10:49;100624.09;;;7.77
77331;BMP280;66405;48.328;7.820;2023-04-03T06:13:16;100628.19;;;7.85
77331;BMP280;66405;48.328;7.820;2023-04-03T06:15:42;100621.59;;;7.90
77331;BMP280;66405;48.328;7.820;2023-04-03T06:18:08;100622.28;;;7.94
77331;BMP280;66405;48.328;7.820;2023-04-03T06:20:36;100629.06;;;8.02
77331;BMP280;66405;48.328;7.820;2023-04-03T06:23:02;100630.19;;;8.09
77331;BMP280;66405;48.328;7.820;2023-04-03T06:25:28;100628.84;;;8.21
77331;BMP280;66405;48.328;7.820;2023-04-03T06:27:54;100637.53;;;8.32
77331;BMP280;66405;48.328;7.820;2023-04-03T06:30:21;100641.22;;;8.42
77331;BMP280;66405;48.328;7.820;2023-04-03T06:32:46;100634.16;;;8.51
77331;BMP280;66405;48.328;7.820;2023-04-03T06:35:12;100640.59;;;8.58
77331;BMP280;66405;48.328;7.820;2023-04-03T06:37:37;100638.56;;;8.65
77331;BMP280;66405;48.328;7.820;2023-04-03T06:40:03;100638.44;;;8.73
77331;BMP280;66405;48.328;7.820;2023-04-03T06:42:29;100637.19;;;8.77
77331;BMP280;66405;48.328;7.820;2023-04-03T06:45:07;100653.75;;;8.99
77331;BMP280;66405;48.328;7.820;2023-04-03T06:47:35;100639.88;;;9.21
77331;BMP280;66405;48.328;7.820;2023-04-03T06:50:02;100653.63;;;9.47
77331;BMP280;66405;48.328;7.820;2023-04-03T06:52:28;100650.84;;;9.71
77331;BMP280;66405;48.328;7.820;2023-04-03T06:54:53;100654.34;;;9.88
77331;BMP280;66405;48.328;7.820;2023-04-03T06:57:34;100653.84;;;9.93
77331;BMP280;66405;48.328;7.820;2023-04-03T07:00:37;100655.03;;;9.92
77331;BMP280;66405;48.328;7.820;2023-04-03T07:03:04;100654.28;;;9.91
77331;BMP280;66405;48.328;7.820;2023-04-03T07:05:29;100657.88;;;10.01
77331;BMP280;66405;48.328;7.820;2023-04-03T07:07:55;100659.19;;;10.13
77331;BMP280;66405;48.328;7.820;2023-04-03T07:10:21;100659.03;;;10.20
77331;BMP280;66405;48.328;7.820;2023-04-03T07:12:48;100657.00;;;10.24
77331;BMP280;66405;48.328;7.820;2023-04-03T07:15:16;100660.13;;;10.39
77331;BMP280;66405;48.328;7.820;2023-04-03T07:17:42;100662.97;;;10.48
77331;BMP280;66405;48.328;7.820;2023-04-03T07:20:08;100668.22;;;10.56
77331;BMP280;66405;48.328;7.820;2023-04-03T07:22:33;100669.56;;;10.64
77331;BMP280;66405;48.328;7.820;2023-04-03T07:24:59;100663.47;;;10.76
77331;BMP280;66405;48.328;7.820;2023-04-03T07:27:25;100668.16;;;10.89
77331;BMP280;66405;48.328;7.820;2023-04-03T07:29:52;100661.94;;;11.05
77331;BMP280;66405;48.328;7.820;2023-04-03T07:32:17;100667.72;;;11.19
77331;BMP280;66405;48.328;7.820;2023-04-03T07:34:43;100666.03;;;11.39
77331;BMP280;66405;48.328;7.820;2023-04-03T07:37:09;100668.69;;;11.55
77331;BMP280;66405;48.328;7.820;2023-04-03T07:39:35;100674.09;;;11.68
77331;BMP280;66405;48.328;7.820;2023-04-03T07:42:01;100675.97;;;11.71
77331;BMP280;66405;48.328;7.820;2023-04-03T07:44:27;100681.47;;;11.80
77331;BMP280;66405;48.328;7.820;2023-04-03T07:46:53;100675.31;;;11.80
77331;BMP280;66405;48.328;7.820;2023-04-03T07:49:22;100682.69;;;11.79
77331;BMP280;66405;48.328;7.820;2023-04-03T07:51:51;100683.97;;;11.75
77331;BMP280;66405;48.328;7.820;2023-04-03T07:54:18;100687.63;;;11.68
77331;BMP280;66405;48.328;7.820;2023-04-03T07:56:43;100694.25;;;11.67
77331;BMP280;66405;48.328;7.820;2023-04-03T07:59:09;100692.72;;;11.66
77331;BMP280;66405;48.328;7.820;2023-04-03T08:01:35;100695.31;;;11.69
77331;BMP280;66405;48.328;7.820;2023-04-03T08:04:03;100687.41;;;11.75
77331;BMP280;66405;48.328;7.820;2023-04-03T08:06:28;100695.25;;;11.86
77331;BMP280;66405;48.328;7.820;2023-04-03T08:09:00;100699.25;;;11.94
77331;BMP280;66405;48.328;7.820;2023-04-03T08:11:25;100693.63;;;12.01
77331;BMP280;66405;48.328;7.820;2023-04-03T08:13:52;100697.94;;;12.12
77331;BMP280;66405;48.328;7.820;2023-04-03T08:16:20;100695.47;;;12.17
77331;BMP280;66405;48.328;7.820;2023-04-03T08:18:49;100690.44;;;12.29
77331;BMP280;66405;48.328;7.820;2023-04-03T08:21:14;100702.44;;;12.41
77331;BMP280;66405;48.328;7.820;2023-04-03T08:23:40;100690.50;;;12.51
77331;BMP280;66405;48.328;7.820;2023-04-03T08:26:09;100707.81;;;12.66
77331;BMP280;66405;48.328;7.820;2023-04-03T08:28:38;100705.06;;;12.79
77331;BMP280;66405;48.328;7.820;2023-04-03T08:31:05;100710.66;;;12.85
77331;BMP280;66405;48.328;7.820;2023-04-03T08:33:34;100707.28;;;12.94
77331;BMP280;66405;48.328;7.820;2023-04-03T08:36:05;100710.28;;;13.09
77331;BMP280;66405;48.328;7.820;2023-04-03T08:38:33;100713.91;;;13.15
77331;BMP280;66405;48.328;7.820;2023-04-03T08:41:06;100713.66;;;13.22
77331;BMP280;66405;48.328;7.820;2023-04-03T08:44:04;100708.78;;;13.17
77331;BMP280;66405;48.328;7.820;2023-04-03T08:49:44;100722.34;;;13.39
77331;BMP280;66405;48.328;7.820;2023-04-03T08:52:38;100717.09;;;13.45
77331;BMP280;66405;48.328;7.820;2023-04-03T08:57:51;100724.63;;;13.40
77331;BMP280;66405;48.328;7.820;2023-04-03T09:00:24;100731.00;;;13.47
77331;BMP280;66405;48.328;7.820;2023-04-03T09:02:55;100734.31;;;13.51
77331;BMP280;66405;48.328;7.820;2023-04-03T09:08:11;100739.75;;;13.73
77331;BMP280;66405;48.328;7.820;2023-04-03T09:10:41;100739.16;;;13.78
77331;BMP280;66405;48.328;7.820;2023-04-03T09:15:46;100735.44;;;13.63
77331;BMP280;66405;48.328;7.820;2023-04-03T09:18:20;100736.78;;;13.49
77331;BMP280;66405;48.328;7.820;2023-04-03T09:23:50;100735.81;;;13.20
77331;BMP280;66405;48.328;7.820;2023-04-03T09:26:31;100754.50;;;13.18
77331;BMP280;66405;48.328;7.820;2023-04-03T09:29:02;100740.16;;;13.18
77331;BMP280;66405;48.328;7.820;2023-04-03T09:31:38;100733.22;;;13.17
77331;BMP280;66405;48.328;7.820;2023-04-03T09:34:26;100740.31;;;13.14
77331;BMP280;66405;48.328;7.820;2023-04-03T09:36:56;100748.88;;;13.13
77331;BMP280;66405;48.328;7.820;2023-04-03T09:39:28;100750.59;;;13.19
77331;BMP280;66405;48.328;7.820;2023-04-03T09:42:43;100743.81;;;13.24
77331;BMP280;66405;48.328;7.820;2023-04-03T09:45:05;100740.56;;;13.29
77331;BMP280;66405;48.328;7.820;2023-04-03T09:47:35;100741.09;;;13.24
77331;BMP280;66405;48.328;7.820;2023-04-03T09:52:47;100744.84;;;13.39
77331;BMP280;66405;48.328;7.820;2023-04-03T09:55:19;100749.25;;;13.46
77331;BMP280;66405;48.328;7.820;2023-04-03T09:57:53;100746.22;;;13.44
77331;BMP280;66405;48.328;7.820;2023-04-03T10:00:25;100759.72;;;13.57
77331;BMP280;66405;48.328;7.820;2023-04-03T10:02:56;100748.03;;;13.69
77331;BMP280;66405;48.328;7.820;2023-04-03T10:05:35;100746.28;;;13.85
77331;BMP280;66405;48.328;7.820;2023-04-03T10:08:33;100749.47;;;13.92
77331;BMP280;66405;48.328;7.820;2023-04-03T10:11:08;100739.94;;;13.88
77331;BMP280;66405;48.328;7.820;2023-04-03T10:13:35;100744.03;;;13.92
77331;BMP280;66405;48.328;7.820;2023-04-03T10:16:12;100743.28;;;13.92
77331;BMP280;66405;48.328;7.820;2023-04-03T10:18:45;100734.44;;;14.10
77331;BMP280;66405;48.328;7.820;2023-04-03T10:21:29;100733.13;;;14.52
77331;BMP280;66405;48.328;7.820;2023-04-03T10:24:21;100725.75;;;14.80
77331;BMP280;66405;48.328;7.820;2023-04-03T10:27:06;100726.00;;;15.01
77331;BMP280;66405;48.328;7.820;2023-04-03T10:38:03;100714.41;;;15.52
77331;BMP280;66405;48.328;7.820;2023-04-03T10:43:29;100713.88;;;15.96
77331;BMP280;66405;48.328;7.820;2023-04-03T10:48:46;100704.56;;;16.51
77331;BMP280;66405;48.328;7.820;2023-04-03T10:51:33;100690.66;;;16.94
77331;BMP280;66405;48.328;7.820;2023-04-03T10:54:10;100697.31;;;17.23
77331;BMP280;66405;48.328;7.820;2023-04-03T10:56:47;100697.81;;;17.07
77331;BMP280;66405;48.328;7.820;2023-04-03T11:01:56;100700.44;;;16.86
77331;BMP280;66405;48.328;7.820;2023-04-03T11:04:24;100699.59;;;16.80
77331;BMP280;66405;48.328;7.820;2023-04-03T11:06:55;100689.53;;;16.71
77331;BMP280;66405;48.328;7.820;2023-04-03T11:09:27;100688.09;;;16.61
77331;BMP280;66405;48.328;7.820;2023-04-03T11:12:00;100681.00;;;16.39
77331;BMP280;66405;48.328;7.820;2023-04-03T11:14:32;100681.69;;;16.10
77331;BMP280;66405;48.328;7.820;2023-04-03T11:17:11;100686.50;;;15.91
77331;BMP280;66405;48.328;7.820;2023-04-03T11:20:08;100679.13;;;15.82
77331;BMP280;66405;48.328;7.820;2023-04-03T11:22:48;100681.63;;;15.95
77331;BMP280;66405;48.328;7.820;2023-04-03T11:25:24;100669.75;;;16.07
77331;BMP280;66405;48.328;7.820;2023-04-03T11:27:57;100670.78;;;16.64
77331;BMP280;66405;48.328;7.820;2023-04-03T11:30:31;100667.16;;;17.17
77331;BMP280;66405;48.328;7.820;2023-04-03T11:35:34;100671.44;;;17.54
77331;BMP280;66405;48.328;7.820;2023-04-03T11:38:02;100667.00;;;17.56
77331;BMP280;66405;48.328;7.820;2023-04-03T11:40:34;100664.03;;;17.60
77331;BMP280;66405;48.328;7.820;2023-04-03T11:43:07;100674.50;;;17.62
77331;BMP280;66405;48.328;7.820;2023-04-03T11:50:47;100658.19;;;17.32
77331;BMP280;66405;48.328;7.820;2023-04-03T11:58:17;100659.19;;;17.14
77331;BMP280;66405;48.328;7.820;2023-04-03T12:03:30;100646.16;;;16.73
77331;BMP280;66405;48.328;7.820;2023-04-03T12:16:24;100650.56;;;16.41
77331;BMP280;66405;48.328;7.820;2023-04-03T12:26:25;100642.91;;;16.30
77331;BMP280;66405;48.328;7.820;2023-04-03T12:28:53;100642.16;;;16.29
77331;BMP280;66405;48.328;7.820;2023-04-03T12:31:19;100633.66;;;16.27
77331;BMP280;66405;48.328;7.820;2023-04-03T12:36:54;100644.00;;;16.23
77331;BMP280;66405;48.328;7.820;2023-04-03T12:39:45;100649.81;;;16.16
77331;BMP280;66405;48.328;7.820;2023-04-03T12:42:54;100642.00;;;16.09
77331;BMP280;66405;48.328;7.820;2023-04-03T12:45:25;100628.75;;;16.02
77331;BMP280;66405;48.328;7.820;2023-04-03T12:47:53;100626.66;;;15.96
77331;BMP280;66405;48.328;7.820;2023-04-03T12:50:32;100634.25;;;15.92
77331;BMP280;66405;48.328;7.820;2023-04-03T12:53:12;100631.88;;;15.85
77331;BMP280;66405;48.328;7.820;2023-04-03T12:55:38;100642.66;;;15.79
77331;BMP280;66405;48.328;7.820;2023-04-03T12:58:25;100635.53;;;15.82
77331;BMP280;66405;48.328;7.820;2023-04-03T13:01:11;100637.19;;;15.79
77331;BMP280;66405;48.328;7.820;2023-04-03T13:03:40;100638.44;;;15.78
77331;BMP280;66405;48.328;7.820;2023-04-03T13:06:06;100632.53;;;15.80
77331;BMP280;66405;48.328;7.820;2023-04-03T13:08:33;100635.13;;;15.74
77331;BMP280;66405;48.328;7.820;2023-04-03T13:11:02;100634.25;;;15.68
77331;BMP280;66405;48.328;7.820;2023-04-03T13:13:30;100623.13;;;15.57
77331;BMP280;66405;48.328;7.820;2023-04-03T13:15:55;100633.41;;;15.53
77331;BMP280;66405;48.328;7.820;2023-04-03T13:18:23;100629.78;;;15.56
77331;BMP280;66405;48.328;7.820;2023-04-03T13:20:49;100620.53;;;15.62
77331;BMP280;66405;48.328;7.820;2023-04-03T13:23:17;100626.00;;;15.53
77331;BMP280;66405;48.328;7.820;2023-04-03T13:25:44;100627.56;;;15.45
77331;BMP280;66405;48.328;7.820;2023-04-03T13:28:13;100635.50;;;15.34
77331;BMP280;66405;48.328;7.820;2023-04-03T13:30:41;100639.28;;;15.27
77331;BMP280;66405;48.328;7.820;2023-04-03T13:33:22;100635.75;;;15.11
77331;BMP280;66405;48.328;7.820;2023-04-03T13:35:56;100630.91;;;14.97
77331;BMP280;66405;48.328;7.820;2023-04-03T13:38:25;100628.84;;;14.83
77331;BMP280;66405;48.328;7.820;2023-04-03T13:40:56;100621.91;;;14.72
77331;BMP280;66405;48.328;7.820;2023-04-03T13:43:26;100624.50;;;14.67
77331;BMP280;66405;48.328;7.820;2023-04-03T13:48:21;100622.78;;;14.78
77331;BMP280;66405;48.328;7.820;2023-04-03T13:51:00;100617.63;;;14.99
77331;BMP280;66405;48.328;7.820;2023-04-03T13:53:28;100614.78;;;15.27
77331;BMP280;66405;48.328;7.820;2023-04-03T13:56:07;100611.53;;;15.38
77331;BMP280;66405;48.328;7.820;2023-04-03T13:58:36;100617.59;;;15.42
77331;BMP280;66405;48.328;7.820;2023-04-03T14:03:45;100598.00;;;15.53
77331;BMP280;66405;48.328;7.820;2023-04-03T14:06:14;100621.59;;;15.56
77331;BMP280;66405;48.328;7.820;2023-04-03T14:08:41;100615.41;;;15.55
77331;BMP280;66405;48.328;7.820;2023-04-03T14:11:13;100615.09;;;15.53
77331;BMP280;66405;48.328;7.820;2023-04-03T14:13:40;100612.72;;;15.46
77331;BMP280;66405;48.328;7.820;2023-04-03T14:16:06;100617.13;;;15.43
77331;BMP280;66405;48.328;7.820;2023-04-03T14:18:31;100604.72;;;15.42
77331;BMP280;66405;48.328;7.820;2023-04-03T14:20:57;100599.00;;;15.40
77331;BMP280;66405;48.328;7.820;2023-04-03T14:23:25;100609.25;;;15.45
77331;BMP280;66405;48.328;7.820;2023-04-03T14:25:50;100609.91;;;15.40
77331;BMP280;66405;48.328;7.820;2023-04-03T14:28:20;100600.59;;;15.23
77331;BMP280;66405;48.328;7.820;2023-04-03T14:30:47;100595.19;;;15.04
77331;BMP280;66405;48.328;7.820;2023-04-03T14:33:16;100605.72;;;14.87
77331;BMP280;66405;48.328;7.820;2023-04-03T14:35:43;100605.13;;;14.65
77331;BMP280;66405;48.328;7.820;2023-04-03T14:38:29;100605.31;;;14.42
77331;BMP280;66405;48.328;7.820;2023-04-03T14:40:56;100598.38;;;14.23
77331;BMP280;66405;48.328;7.820;2023-04-03T14:43:22;100612.38;;;14.03
77331;BMP280;66405;48.328;7.820;2023-04-03T14:45:50;100603.19;;;13.82
77331;BMP280;66405;48.328;7.820;2023-04-03T14:48:20;100606.16;;;13.65
77331;BMP280;66405;48.328;7.820;2023-04-03T14:50:47;100609.56;;;13.56
77331;BMP280;66405;48.328;7.820;2023-04-03T14:53:13;100605.16;;;13.50
77331;BMP280;66405;48.328;7.820;2023-04-03T14:55:42;100599.72;;;13.40
77331;BMP280;66405;48.328;7.820;2023-04-03T14:58:13;100602.00;;;13.42
77331;BMP280;66405;48.328;7.820;2023-04-03T15:00:39;100599.88;;;13.46
77331;BMP280;66405;48.328;7.820;2023-04-03T15:03:05;100599.47;;;13.48
77331;BMP280;66405;48.328;7.820;2023-04-03T15:05:30;100604.13;;;13.47
77331;BMP280;66405;48.328;7.820;2023-04-03T15:08:02;100598.81;;;13.44
77331;BMP280;66405;48.328;7.820;2023-04-03T15:10:29;100602.31;;;13.44
77331;BMP280;66405;48.328;7.820;2023-04-03T15:12:57;100598.53;;;13.42
77331;BMP280;66405;48.328;7.820;2023-04-03T15:15:23;100603.50;;;13.34
77331;BMP280;66405;48.328;7.820;2023-04-03T15:17:52;100597.22;;;13.24
77331;BMP280;66405;48.328;7.820;2023-04-03T15:20:26;100600.97;;;13.17
77331;BMP280;66405;48.328;7.820;2023-04-03T15:22:52;100605.63;;;13.08
77331;BMP280;66405;48.328;7.820;2023-04-03T15:25:18;100593.53;;;12.99
77331;BMP280;66405;48.328;7.820;2023-04-03T15:27:46;100601.03;;;12.95
77331;BMP280;66405;48.328;7.820;2023-04-03T15:30:17;100597.06;;;12.87
77331;BMP280;66405;48.328;7.820;2023-04-03T15:32:44;100607.41;;;12.79